createdAt,value
2019-03-06T00:28:39.508Z,1006.09
2019-03-06T00:28:40.083Z,1006.07
2019-03-06T00:28:40.681Z,1006.03
2019-03-06T00:28:41.281Z,1006.00
2019-03-06T00:28:41.882Z,1006.02
2019-03-06T00:28:42.480Z,1006.01
2019-03-06T00:28:43.081Z,1006.01
2019-03-06T00:28:43.680Z,1006.03
2019-03-06T00:29:38.184Z,1006.02
2019-03-06T00:29:38.760Z,1006.07
2019-03-06T00:29:39.358Z,1006.03
2019-03-06T00:29:39.957Z,1006.00
2019-03-06T00:29:40.558Z,1006.04
2019-03-06T00:29:41.156Z,1006.05
2019-03-06T00:29:41.758Z,1006.02
2019-03-06T00:29:42.356Z,1005.98
2019-03-06T00:30:35.836Z,1005.97
2019-03-06T00:30:36.411Z,1006.03
2019-03-06T00:30:37.010Z,1006.01
2019-03-06T00:30:37.616Z,1006.02
2019-03-06T00:30:38.210Z,1006.01
2019-03-06T00:30:38.809Z,1005.99
2019-03-06T00:30:39.409Z,1006.01
2019-03-06T00:30:40.010Z,1006.06
2019-03-06T00:31:33.492Z,1006.03
2019-03-06T00:31:34.062Z,1006.01
2019-03-06T00:31:34.663Z,1006.03
2019-03-06T00:31:35.264Z,1006.03
2019-03-06T00:31:35.862Z,1006.05
2019-03-06T00:31:36.461Z,1005.99
2019-03-06T00:31:37.061Z,1005.99
2019-03-06T00:31:37.664Z,1006.05
2019-03-06T00:32:32.164Z,1005.98
2019-03-06T00:32:32.739Z,1005.97
2019-03-06T00:32:33.344Z,1006.01
2019-03-06T00:32:33.938Z,1006.01
2019-03-06T00:32:34.538Z,1006.00
2019-03-06T00:32:35.137Z,1006.00
2019-03-06T00:32:35.739Z,1006.03
2019-03-06T00:32:36.365Z,1006.02
2019-03-06T00:33:30.845Z,1005.99
2019-03-06T00:33:31.416Z,1005.98
2019-03-06T00:33:32.017Z,1005.97
2019-03-06T00:33:32.614Z,1006.00
2019-03-06T00:33:33.214Z,1005.97
2019-03-06T00:33:33.813Z,1005.99
2019-03-06T00:33:34.412Z,1005.97
2019-03-06T00:33:35.015Z,1006.02
2019-03-06T00:34:29.516Z,1005.95
2019-03-06T00:34:30.091Z,1005.96
2019-03-06T00:34:30.691Z,1005.94
2019-03-06T00:34:31.291Z,1005.93
2019-03-06T00:34:31.890Z,1005.95
2019-03-06T00:34:32.490Z,1005.98
2019-03-06T00:34:33.091Z,1005.99
2019-03-06T00:34:33.694Z,1005.96
2019-03-06T00:35:28.199Z,1005.97
2019-03-06T00:35:28.766Z,1005.94
2019-03-06T00:35:29.366Z,1005.96
2019-03-06T00:35:29.965Z,1005.95
2019-03-06T00:35:30.566Z,1005.95
2019-03-06T00:35:31.165Z,1005.95
2019-03-06T00:35:31.765Z,1005.94
2019-03-06T00:35:32.366Z,1005.98
2019-03-06T00:36:26.872Z,1005.95
2019-03-06T00:36:27.444Z,1005.93
2019-03-06T00:36:28.043Z,1005.96
2019-03-06T00:36:28.641Z,1005.92
2019-03-06T00:36:29.242Z,1005.92
2019-03-06T00:36:29.842Z,1005.94
2019-03-06T00:36:30.442Z,1005.95
2019-03-06T00:36:31.042Z,1005.94
2019-03-06T00:37:25.544Z,1005.93
2019-03-06T00:37:26.119Z,1005.95
2019-03-06T00:37:26.718Z,1005.94
2019-03-06T00:37:27.319Z,1005.99
2019-03-06T00:37:27.918Z,1006.00
2019-03-06T00:37:28.518Z,1005.99
2019-03-06T00:37:29.120Z,1005.97
2019-03-06T00:37:29.717Z,1005.96
2019-03-06T00:38:23.199Z,1005.92
2019-03-06T00:38:23.772Z,1005.95
2019-03-06T00:38:24.371Z,1005.96
2019-03-06T00:38:24.974Z,1005.96
2019-03-06T00:38:25.569Z,1005.95
2019-03-06T00:38:26.169Z,1005.94
2019-03-06T00:38:26.769Z,1005.90
2019-03-06T00:38:27.375Z,1005.91
2019-03-06T00:39:20.850Z,1005.94
2019-03-06T00:39:21.424Z,1005.94
2019-03-06T00:39:22.023Z,1005.96
2019-03-06T00:39:22.625Z,1005.93
2019-03-06T00:39:23.223Z,1005.95
2019-03-06T00:39:23.822Z,1005.97
2019-03-06T00:39:24.422Z,1005.96
2019-03-06T00:39:25.023Z,1005.95
2019-03-06T00:40:19.525Z,1005.96
2019-03-06T00:40:20.098Z,1005.92
2019-03-06T00:40:20.700Z,1005.96
2019-03-06T00:40:21.297Z,1005.97
2019-03-06T00:40:21.897Z,1005.97
2019-03-06T00:40:22.496Z,1005.96
2019-03-06T00:40:23.097Z,1005.93
2019-03-06T00:40:23.697Z,1005.96
2019-03-06T00:41:18.201Z,1005.96
2019-03-06T00:41:18.773Z,1005.95
2019-03-06T00:41:19.374Z,1005.94
2019-03-06T00:41:19.974Z,1005.94
2019-03-06T00:41:20.573Z,1005.94
2019-03-06T00:41:21.173Z,1005.96
2019-03-06T00:41:21.775Z,1005.96
2019-03-06T00:41:22.375Z,1005.94
2019-03-06T00:42:16.878Z,1005.94
2019-03-06T00:42:17.450Z,1005.94
2019-03-06T00:42:18.050Z,1005.94
2019-03-06T00:42:18.656Z,1005.94
2019-03-06T00:42:19.251Z,1005.94
2019-03-06T00:42:19.849Z,1005.94
2019-03-06T00:42:20.448Z,1005.95
2019-03-06T00:42:21.049Z,1005.94
2019-03-06T00:43:14.529Z,1005.95
2019-03-06T00:43:15.104Z,1005.88
2019-03-06T00:43:15.703Z,1005.91
2019-03-06T00:43:16.303Z,1005.92
2019-03-06T00:43:16.907Z,1005.93
2019-03-06T00:43:17.501Z,1005.91
2019-03-06T00:43:18.101Z,1005.91
2019-03-06T00:43:18.704Z,1005.93
2019-03-06T00:44:12.187Z,1005.89
2019-03-06T00:44:12.755Z,1005.91
2019-03-06T00:44:13.356Z,1005.92
2019-03-06T00:44:13.955Z,1005.89
2019-03-06T00:44:14.554Z,1005.82
2019-03-06T00:44:15.154Z,1005.90
2019-03-06T00:44:15.755Z,1005.92
2019-03-06T00:44:16.353Z,1005.89
2019-03-06T00:45:09.832Z,1005.87
2019-03-06T00:45:10.407Z,1005.91
2019-03-06T00:45:11.008Z,1005.89
2019-03-06T00:45:11.607Z,1005.90
2019-03-06T00:45:12.206Z,1005.86
2019-03-06T00:45:12.806Z,1005.87
2019-03-06T00:45:13.405Z,1005.92
2019-03-06T00:45:14.011Z,1005.93
2019-03-06T00:46:07.484Z,1005.92
2019-03-06T00:46:08.056Z,1005.90
2019-03-06T00:46:08.657Z,1005.90
2019-03-06T00:46:09.257Z,1005.91
2019-03-06T00:46:09.858Z,1005.90
2019-03-06T00:46:10.456Z,1005.87
2019-03-06T00:46:11.055Z,1005.87
2019-03-06T00:46:11.656Z,1005.93
2019-03-06T00:47:05.136Z,1005.92
2019-03-06T00:47:05.709Z,1005.90
2019-03-06T00:47:06.310Z,1005.89
2019-03-06T00:47:06.909Z,1005.90
2019-03-06T00:47:07.512Z,1005.93
2019-03-06T00:47:08.109Z,1005.91
2019-03-06T00:47:08.709Z,1005.91
2019-03-06T00:47:09.310Z,1005.92
2019-03-06T00:48:02.790Z,1005.94
2019-03-06T00:48:03.363Z,1005.93
2019-03-06T00:48:03.961Z,1005.94
2019-03-06T00:48:04.561Z,1005.90
2019-03-06T00:48:05.163Z,1005.95
2019-03-06T00:48:05.760Z,1005.88
2019-03-06T00:48:06.359Z,1005.92
2019-03-06T00:48:06.962Z,1005.94
2019-03-06T00:49:00.439Z,1005.88
2019-03-06T00:49:01.016Z,1005.89
2019-03-06T00:49:01.612Z,1005.91
2019-03-06T00:49:02.212Z,1005.89
2019-03-06T00:49:02.813Z,1005.93
2019-03-06T00:49:03.412Z,1005.91
2019-03-06T00:49:04.013Z,1005.91
2019-03-06T00:49:04.616Z,1005.91
2019-03-06T00:49:58.091Z,1005.94
2019-03-06T00:49:58.664Z,1005.92
2019-03-06T00:49:59.265Z,1005.91
2019-03-06T00:49:59.866Z,1005.94
2019-03-06T00:50:00.468Z,1005.94
2019-03-06T00:50:01.063Z,1005.88
2019-03-06T00:50:01.665Z,1005.93
2019-03-06T00:50:02.265Z,1005.96
2019-03-06T00:50:56.766Z,1005.92
2019-03-06T00:50:57.339Z,1005.92
2019-03-06T00:50:57.941Z,1005.90
2019-03-06T00:50:58.542Z,1005.86
2019-03-06T00:50:59.143Z,1005.89
2019-03-06T00:50:59.739Z,1005.93
2019-03-06T00:51:00.340Z,1005.94
2019-03-06T00:51:00.940Z,1005.93
2019-03-06T00:51:55.444Z,1005.91
2019-03-06T00:51:56.015Z,1005.90
2019-03-06T00:51:56.617Z,1005.88
2019-03-06T00:51:57.215Z,1005.88
2019-03-06T00:51:57.833Z,1005.89
2019-03-06T00:51:58.413Z,1005.91
2019-03-06T00:51:59.013Z,1005.88
2019-03-06T00:51:59.615Z,1005.90
2019-03-06T00:52:53.094Z,1005.92
2019-03-06T00:52:53.669Z,1005.88
2019-03-06T00:52:54.268Z,1005.91
2019-03-06T00:52:54.868Z,1005.93
2019-03-06T00:52:55.467Z,1005.89
2019-03-06T00:52:56.068Z,1005.91
2019-03-06T00:52:56.671Z,1005.90
2019-03-06T00:52:57.268Z,1005.92
2019-03-06T00:53:50.746Z,1005.92
2019-03-06T00:53:51.320Z,1005.92
2019-03-06T00:53:51.920Z,1005.91
2019-03-06T00:53:52.521Z,1005.92
2019-03-06T00:53:53.118Z,1005.90
2019-03-06T00:53:53.719Z,1005.89
2019-03-06T00:53:54.319Z,1005.88
2019-03-06T00:53:54.919Z,1005.87
2019-03-06T00:54:48.397Z,1005.88
2019-03-06T00:54:48.971Z,1005.88
2019-03-06T00:54:49.573Z,1005.90
2019-03-06T00:54:50.170Z,1005.93
2019-03-06T00:54:50.771Z,1005.88
2019-03-06T00:54:51.372Z,1005.89
2019-03-06T00:54:51.971Z,1005.92
2019-03-06T00:54:52.571Z,1005.89
2019-03-06T00:55:46.050Z,1005.88
2019-03-06T00:55:46.622Z,1005.90
2019-03-06T00:55:47.223Z,1005.88
2019-03-06T00:55:47.823Z,1005.89
2019-03-06T00:55:48.423Z,1005.84
2019-03-06T00:55:49.023Z,1005.87
2019-03-06T00:55:49.625Z,1005.88
2019-03-06T00:55:50.222Z,1005.88
2019-03-06T00:56:43.716Z,1005.91
2019-03-06T00:56:44.274Z,1005.89
2019-03-06T00:56:44.875Z,1005.92
2019-03-06T00:56:45.475Z,1005.88
2019-03-06T00:56:46.075Z,1005.87
2019-03-06T00:56:46.674Z,1005.86
2019-03-06T00:56:47.274Z,1005.89
2019-03-06T00:56:47.876Z,1005.91
2019-03-06T00:57:41.352Z,1005.93
2019-03-06T00:57:41.927Z,1005.94
2019-03-06T00:57:42.528Z,1005.94
2019-03-06T00:57:43.125Z,1005.94
2019-03-06T00:57:43.725Z,1005.91
2019-03-06T00:57:44.328Z,1005.94
2019-03-06T00:57:44.926Z,1005.91
2019-03-06T00:57:45.526Z,1005.92
2019-03-06T00:58:39.004Z,1005.95
2019-03-06T00:58:39.579Z,1005.94
2019-03-06T00:58:40.178Z,1005.94
2019-03-06T00:58:40.779Z,1005.96
2019-03-06T00:58:41.382Z,1005.95
2019-03-06T00:58:41.977Z,1005.96
2019-03-06T00:58:42.581Z,1005.96
2019-03-06T00:58:43.178Z,1005.96
2019-03-06T00:59:36.657Z,1005.99
2019-03-06T00:59:37.234Z,1005.98
2019-03-06T00:59:37.831Z,1005.94
2019-03-06T00:59:38.430Z,1005.97
2019-03-06T00:59:39.030Z,1005.95
2019-03-06T00:59:39.629Z,1005.95
2019-03-06T00:59:40.231Z,1005.97
2019-03-06T00:59:40.829Z,1005.96
2019-03-06T01:00:34.310Z,1005.97
2019-03-06T01:00:34.882Z,1005.95
2019-03-06T01:00:35.482Z,1005.92
2019-03-06T01:00:36.081Z,1005.98
2019-03-06T01:00:36.681Z,1005.98
2019-03-06T01:00:37.281Z,1005.96
2019-03-06T01:00:37.885Z,1005.96
2019-03-06T01:00:38.537Z,1005.96
2019-03-06T01:01:32.986Z,1005.95
2019-03-06T01:01:33.557Z,1005.94
2019-03-06T01:01:34.156Z,1005.97
2019-03-06T01:01:34.757Z,1005.94
2019-03-06T01:01:35.357Z,1005.90
2019-03-06T01:01:35.956Z,1005.92
2019-03-06T01:01:36.557Z,1005.92
2019-03-06T01:01:37.157Z,1005.96
2019-03-06T01:02:30.635Z,1005.95
2019-03-06T01:02:31.211Z,1005.97
2019-03-06T01:02:31.809Z,1005.94
2019-03-06T01:02:32.409Z,1006.01
2019-03-06T01:02:33.009Z,1006.00
2019-03-06T01:02:33.609Z,1005.97
2019-03-06T01:02:34.209Z,1005.99
2019-03-06T01:02:34.810Z,1005.97
2019-03-06T01:03:28.288Z,1005.98
2019-03-06T01:03:28.908Z,1005.99
2019-03-06T01:03:29.461Z,1005.96
2019-03-06T01:03:30.062Z,1005.95
2019-03-06T01:03:30.664Z,1005.95
2019-03-06T01:03:31.260Z,1005.97
2019-03-06T01:03:31.865Z,1005.99
2019-03-06T01:03:32.462Z,1006.01
2019-03-06T01:04:25.938Z,1005.95
2019-03-06T01:04:26.513Z,1006.01
2019-03-06T01:04:27.112Z,1005.98
2019-03-06T01:04:27.712Z,1006.00
2019-03-06T01:04:28.314Z,1006.02
2019-03-06T01:04:28.914Z,1005.98
2019-03-06T01:04:29.512Z,1005.97
2019-03-06T01:04:30.110Z,1005.96
2019-03-06T01:05:24.615Z,1006.00
2019-03-06T01:05:25.187Z,1005.99
2019-03-06T01:05:25.787Z,1006.00
2019-03-06T01:05:26.388Z,1005.95
2019-03-06T01:05:26.988Z,1005.99
2019-03-06T01:05:27.586Z,1006.01
2019-03-06T01:05:28.187Z,1005.98
2019-03-06T01:05:28.788Z,1006.01
2019-03-06T01:06:22.268Z,1005.97
2019-03-06T01:06:22.841Z,1005.94
2019-03-06T01:06:23.441Z,1006.01
2019-03-06T01:06:24.040Z,1005.98
2019-03-06T01:06:24.642Z,1006.00
2019-03-06T01:06:25.240Z,1006.03
2019-03-06T01:06:25.839Z,1005.98
2019-03-06T01:06:26.439Z,1006.00
2019-03-06T01:07:20.943Z,1005.98
2019-03-06T01:07:21.515Z,1005.96
2019-03-06T01:07:22.117Z,1005.98
2019-03-06T01:07:22.715Z,1005.95
2019-03-06T01:07:23.317Z,1006.01
2019-03-06T01:07:23.914Z,1006.00
2019-03-06T01:07:24.518Z,1005.96
2019-03-06T01:07:25.114Z,1005.99
2019-03-06T01:08:18.594Z,1005.99
2019-03-06T01:08:19.169Z,1005.97
2019-03-06T01:08:19.768Z,1005.97
2019-03-06T01:08:20.368Z,1005.97
2019-03-06T01:08:20.966Z,1005.98
2019-03-06T01:08:21.567Z,1005.97
2019-03-06T01:08:22.170Z,1005.99
2019-03-06T01:08:22.767Z,1005.98
2019-03-06T01:09:17.269Z,1005.93
2019-03-06T01:09:17.843Z,1005.97
2019-03-06T01:09:18.443Z,1005.97
2019-03-06T01:09:19.042Z,1005.96
2019-03-06T01:09:19.643Z,1006.00
2019-03-06T01:09:20.242Z,1005.96
2019-03-06T01:09:20.842Z,1005.98
2019-03-06T01:09:21.441Z,1005.98
2019-03-06T01:10:14.922Z,1005.93
2019-03-06T01:10:15.495Z,1005.93
2019-03-06T01:10:16.093Z,1005.95
2019-03-06T01:10:16.694Z,1005.92
2019-03-06T01:10:17.295Z,1005.94
2019-03-06T01:10:17.894Z,1005.96
2019-03-06T01:10:18.494Z,1005.97
2019-03-06T01:10:19.097Z,1005.95
2019-03-06T01:11:12.573Z,1005.98
2019-03-06T01:11:13.147Z,1005.93
2019-03-06T01:11:13.747Z,1005.95
2019-03-06T01:11:14.346Z,1005.93
2019-03-06T01:11:14.947Z,1005.94
2019-03-06T01:11:15.545Z,1005.94
2019-03-06T01:11:16.146Z,1005.93
2019-03-06T01:11:16.748Z,1005.99
2019-03-06T01:12:10.225Z,1005.96
2019-03-06T01:12:10.798Z,1005.94
2019-03-06T01:12:11.398Z,1005.95
2019-03-06T01:12:12.000Z,1005.96
2019-03-06T01:12:12.597Z,1005.95
2019-03-06T01:12:13.197Z,1005.97
2019-03-06T01:12:13.797Z,1005.98
2019-03-06T01:12:14.398Z,1005.96
2019-03-06T01:13:07.875Z,1005.96
2019-03-06T01:13:08.450Z,1005.94
2019-03-06T01:13:09.050Z,1005.95
2019-03-06T01:13:09.651Z,1005.97
2019-03-06T01:13:10.251Z,1005.96
2019-03-06T01:13:10.849Z,1005.96
2019-03-06T01:13:11.449Z,1005.97
2019-03-06T01:13:12.049Z,1005.98
2019-03-06T01:14:05.529Z,1005.95
2019-03-06T01:14:06.103Z,1005.93
2019-03-06T01:14:06.701Z,1005.98
2019-03-06T01:14:07.300Z,1005.96
2019-03-06T01:14:07.902Z,1005.95
2019-03-06T01:14:08.503Z,1005.96
2019-03-06T01:14:09.100Z,1005.94
2019-03-06T01:14:09.702Z,1005.99
2019-03-06T01:15:03.179Z,1005.96
2019-03-06T01:15:03.754Z,1005.93
2019-03-06T01:15:04.354Z,1005.98
2019-03-06T01:15:04.954Z,1005.96
2019-03-06T01:15:05.553Z,1005.94
2019-03-06T01:15:06.153Z,1005.97
2019-03-06T01:15:06.753Z,1005.96
2019-03-06T01:15:07.353Z,1005.93
2019-03-06T01:16:01.855Z,1005.93
2019-03-06T01:16:02.429Z,1005.84
2019-03-06T01:16:03.033Z,1005.92
2019-03-06T01:16:03.630Z,1005.94
2019-03-06T01:16:04.227Z,1005.91
2019-03-06T01:16:04.829Z,1005.90
2019-03-06T01:16:05.426Z,1005.92
2019-03-06T01:16:06.029Z,1005.89
2019-03-06T01:16:59.507Z,1005.94
2019-03-06T01:17:00.081Z,1005.90
2019-03-06T01:17:00.680Z,1005.90
2019-03-06T01:17:01.282Z,1005.94
2019-03-06T01:17:01.881Z,1005.88
2019-03-06T01:17:02.480Z,1005.92
2019-03-06T01:17:03.085Z,1005.94
2019-03-06T01:17:03.680Z,1005.93
2019-03-06T01:17:57.161Z,1005.94
2019-03-06T01:17:57.733Z,1005.90
2019-03-06T01:17:58.336Z,1005.93
2019-03-06T01:17:58.932Z,1005.95
2019-03-06T01:17:59.532Z,1005.93
2019-03-06T01:18:00.131Z,1005.91
2019-03-06T01:18:00.732Z,1005.90
2019-03-06T01:18:01.333Z,1005.95
2019-03-06T01:18:55.834Z,1005.92
2019-03-06T01:18:56.408Z,1005.88
2019-03-06T01:18:57.011Z,1005.91
2019-03-06T01:18:57.607Z,1005.91
2019-03-06T01:18:58.211Z,1005.93
2019-03-06T01:18:58.807Z,1005.90
2019-03-06T01:18:59.406Z,1005.93
2019-03-06T01:19:00.008Z,1005.95
2019-03-06T01:19:53.486Z,1005.91
2019-03-06T01:19:54.063Z,1005.87
2019-03-06T01:19:54.660Z,1005.87
2019-03-06T01:19:55.261Z,1005.90
2019-03-06T01:19:55.863Z,1005.87
2019-03-06T01:19:56.458Z,1005.88
2019-03-06T01:19:57.058Z,1005.87
2019-03-06T01:19:57.660Z,1005.87
2019-03-06T01:20:51.138Z,1005.92
2019-03-06T01:20:51.712Z,1005.87
2019-03-06T01:20:52.312Z,1005.87
2019-03-06T01:20:52.912Z,1005.91
2019-03-06T01:20:53.511Z,1005.89
2019-03-06T01:20:54.111Z,1005.92
2019-03-06T01:20:54.711Z,1005.89
2019-03-06T01:20:55.311Z,1005.89
2019-03-06T01:21:49.813Z,1005.92
2019-03-06T01:21:50.389Z,1005.90
2019-03-06T01:21:50.987Z,1005.89
2019-03-06T01:21:51.590Z,1005.89
2019-03-06T01:21:52.186Z,1005.86
2019-03-06T01:21:52.786Z,1005.91
2019-03-06T01:21:53.387Z,1005.87
2019-03-06T01:21:53.987Z,1005.90
2019-03-06T01:22:47.465Z,1005.92
2019-03-06T01:22:48.039Z,1005.90
2019-03-06T01:22:48.638Z,1005.88
2019-03-06T01:22:49.238Z,1005.89
2019-03-06T01:22:49.840Z,1005.89
2019-03-06T01:22:50.439Z,1005.85
2019-03-06T01:22:51.038Z,1005.89
2019-03-06T01:22:51.641Z,1005.85
2019-03-06T01:23:46.140Z,1005.93
2019-03-06T01:23:46.715Z,1005.93
2019-03-06T01:23:47.314Z,1005.88
2019-03-06T01:23:47.914Z,1005.92
2019-03-06T01:23:48.514Z,1005.89
2019-03-06T01:23:49.113Z,1005.90
2019-03-06T01:23:49.713Z,1005.90
2019-03-06T01:23:50.313Z,1005.90
2019-03-06T01:24:43.794Z,1005.92
2019-03-06T01:24:44.366Z,1005.89
2019-03-06T01:24:44.966Z,1005.86
2019-03-06T01:24:45.566Z,1005.92
2019-03-06T01:24:46.165Z,1005.92
2019-03-06T01:24:46.768Z,1005.92
2019-03-06T01:24:47.366Z,1005.91
2019-03-06T01:24:47.966Z,1005.94
2019-03-06T01:25:42.468Z,1005.94
2019-03-06T01:25:43.043Z,1005.92
2019-03-06T01:25:43.641Z,1005.92
2019-03-06T01:25:44.242Z,1005.91
2019-03-06T01:25:44.840Z,1005.90
2019-03-06T01:25:45.440Z,1005.92
2019-03-06T01:25:46.039Z,1005.87
2019-03-06T01:25:46.642Z,1005.93
2019-03-06T01:26:40.120Z,1005.95
2019-03-06T01:26:40.695Z,1005.91
2019-03-06T01:26:41.294Z,1005.87
2019-03-06T01:26:41.893Z,1005.90
2019-03-06T01:26:42.495Z,1005.85
2019-03-06T01:26:43.095Z,1005.90
2019-03-06T01:26:43.692Z,1005.84
2019-03-06T01:26:44.291Z,1005.91
2019-03-06T01:27:37.771Z,1005.92
2019-03-06T01:27:38.346Z,1005.86
2019-03-06T01:27:38.945Z,1005.85
2019-03-06T01:27:39.545Z,1005.91
2019-03-06T01:27:40.149Z,1005.83
2019-03-06T01:27:40.745Z,1005.91
2019-03-06T01:27:41.345Z,1005.87
2019-03-06T01:27:41.946Z,1005.90
2019-03-06T01:28:35.423Z,1005.86
2019-03-06T01:28:36.000Z,1005.86
2019-03-06T01:28:36.597Z,1005.88
2019-03-06T01:28:37.196Z,1005.89
2019-03-06T01:28:37.798Z,1005.90
2019-03-06T01:28:38.395Z,1005.89
2019-03-06T01:28:38.997Z,1005.89
2019-03-06T01:28:39.598Z,1005.89
2019-03-06T01:29:33.076Z,1005.91
2019-03-06T01:29:33.649Z,1005.85
2019-03-06T01:29:34.250Z,1005.87
2019-03-06T01:29:34.850Z,1005.90
2019-03-06T01:29:35.449Z,1005.90
2019-03-06T01:29:36.048Z,1005.88
2019-03-06T01:29:36.649Z,1005.90
2019-03-06T01:29:37.250Z,1005.86
2019-03-06T01:30:30.726Z,1005.91
2019-03-06T01:30:31.301Z,1005.92
2019-03-06T01:30:31.901Z,1005.88
2019-03-06T01:30:32.500Z,1005.91
2019-03-06T01:30:33.102Z,1005.90
2019-03-06T01:30:33.699Z,1005.93
2019-03-06T01:30:34.300Z,1005.93
2019-03-06T01:30:34.950Z,1005.92
2019-03-06T01:31:28.378Z,1005.96
2019-03-06T01:31:28.954Z,1005.92
2019-03-06T01:31:29.552Z,1005.95
2019-03-06T01:31:30.152Z,1005.91
2019-03-06T01:31:30.750Z,1005.88
2019-03-06T01:31:31.352Z,1005.91
2019-03-06T01:31:31.952Z,1005.92
2019-03-06T01:31:32.552Z,1005.90
2019-03-06T01:32:26.030Z,1005.94
2019-03-06T01:32:26.607Z,1005.92
2019-03-06T01:32:27.204Z,1005.91
2019-03-06T01:32:27.803Z,1005.88
2019-03-06T01:32:28.406Z,1005.93
2019-03-06T01:32:29.005Z,1005.94
2019-03-06T01:32:29.605Z,1005.90
2019-03-06T01:32:30.204Z,1005.90
2019-03-06T01:33:23.690Z,1006.02
2019-03-06T01:33:24.256Z,1005.97
2019-03-06T01:33:24.855Z,1005.91
2019-03-06T01:33:25.455Z,1005.95
2019-03-06T01:33:26.055Z,1005.95
2019-03-06T01:33:26.654Z,1005.92
2019-03-06T01:33:27.255Z,1005.95
2019-03-06T01:33:27.855Z,1005.96
2019-03-06T01:34:22.357Z,1005.98
2019-03-06T01:34:22.930Z,1005.92
2019-03-06T01:34:23.531Z,1005.94
2019-03-06T01:34:24.139Z,1005.96
2019-03-06T01:34:24.730Z,1005.96
2019-03-06T01:34:25.332Z,1005.93
2019-03-06T01:34:25.930Z,1005.93
2019-03-06T01:34:26.529Z,1005.90
2019-03-06T01:35:20.009Z,1005.98
2019-03-06T01:35:20.584Z,1006.00
2019-03-06T01:35:21.183Z,1005.93
2019-03-06T01:35:21.783Z,1005.96
2019-03-06T01:35:22.383Z,1005.98
2019-03-06T01:35:22.984Z,1005.98
2019-03-06T01:35:23.582Z,1005.98
2019-03-06T01:35:24.183Z,1006.00
2019-03-06T01:36:17.660Z,1006.05
2019-03-06T01:36:18.275Z,1005.96
2019-03-06T01:36:18.835Z,1006.00
2019-03-06T01:36:19.435Z,1006.02
2019-03-06T01:36:20.039Z,1006.02
2019-03-06T01:36:20.637Z,1006.01
2019-03-06T01:36:21.234Z,1005.99
2019-03-06T01:36:21.834Z,1006.02
2019-03-06T01:37:15.312Z,1006.00
2019-03-06T01:37:15.887Z,1006.00
2019-03-06T01:37:16.486Z,1005.99
2019-03-06T01:37:17.085Z,1006.00
2019-03-06T01:37:17.686Z,1006.01
2019-03-06T01:37:18.289Z,1006.00
2019-03-06T01:37:18.885Z,1005.97
2019-03-06T01:37:19.486Z,1005.97
2019-03-06T01:38:12.963Z,1006.01
2019-03-06T01:38:13.538Z,1005.99
2019-03-06T01:38:14.186Z,1006.02
2019-03-06T01:38:14.738Z,1005.98
2019-03-06T01:38:15.339Z,1006.02
2019-03-06T01:38:15.941Z,1005.96
2019-03-06T01:38:16.537Z,1005.98
2019-03-06T01:38:17.139Z,1006.04
2019-03-06T01:39:11.639Z,1005.99
2019-03-06T01:39:12.213Z,1005.95
2019-03-06T01:39:12.813Z,1005.94
2019-03-06T01:39:13.413Z,1005.96
2019-03-06T01:39:14.012Z,1005.97
2019-03-06T01:39:14.614Z,1005.95
2019-03-06T01:39:15.213Z,1005.98
2019-03-06T01:39:15.814Z,1005.96
2019-03-06T01:40:09.292Z,1005.90
2019-03-06T01:40:09.865Z,1005.90
2019-03-06T01:40:10.473Z,1005.89
2019-03-06T01:40:11.067Z,1005.84
2019-03-06T01:40:11.664Z,1005.85
2019-03-06T01:40:12.267Z,1005.87
2019-03-06T01:40:12.870Z,1005.90
2019-03-06T01:40:13.467Z,1005.89
2019-03-06T01:41:06.943Z,1005.97
2019-03-06T01:41:07.519Z,1005.90
2019-03-06T01:41:08.148Z,1005.92
2019-03-06T01:41:08.718Z,1005.88
2019-03-06T01:41:09.318Z,1005.90
2019-03-06T01:41:09.918Z,1005.88
2019-03-06T01:41:10.516Z,1005.91
2019-03-06T01:41:11.121Z,1005.86
2019-03-06T01:42:04.596Z,1005.90
2019-03-06T01:42:05.170Z,1005.86
2019-03-06T01:42:05.769Z,1005.88
2019-03-06T01:42:06.369Z,1005.90
2019-03-06T01:42:06.969Z,1005.90
2019-03-06T01:42:07.570Z,1005.90
2019-03-06T01:42:08.168Z,1005.89
2019-03-06T01:42:08.768Z,1005.86
2019-03-06T01:43:02.249Z,1005.89
2019-03-06T01:43:02.820Z,1005.83
2019-03-06T01:43:03.422Z,1005.86
2019-03-06T01:43:04.021Z,1005.86
2019-03-06T01:43:04.620Z,1005.86
2019-03-06T01:43:05.220Z,1005.81
2019-03-06T01:43:05.819Z,1005.88
2019-03-06T01:43:06.420Z,1005.90
2019-03-06T01:44:00.926Z,1005.90
2019-03-06T01:45:15.368Z,1005.87
2019-03-06T01:45:15.942Z,1005.84
2019-03-06T01:45:16.541Z,1005.84
2019-03-06T01:45:17.141Z,1005.82
2019-03-06T01:45:17.741Z,1005.85
2019-03-06T01:45:18.341Z,1005.83
2019-03-06T01:45:18.942Z,1005.85
2019-03-06T01:45:19.539Z,1005.83
2019-03-06T01:46:13.020Z,1005.87
2019-03-06T01:46:13.593Z,1005.81
2019-03-06T01:46:14.193Z,1005.83
2019-03-06T01:46:14.793Z,1005.81
2019-03-06T01:46:15.393Z,1005.80
2019-03-06T01:46:15.992Z,1005.81
2019-03-06T01:46:16.593Z,1005.84
2019-03-06T01:46:17.195Z,1005.83
2019-03-06T01:47:10.670Z,1005.84
2019-03-06T01:47:11.245Z,1005.82
2019-03-06T01:47:11.846Z,1005.78
2019-03-06T01:47:12.449Z,1005.81
2019-03-06T01:47:13.045Z,1005.79
2019-03-06T01:47:13.644Z,1005.83
2019-03-06T01:47:14.245Z,1005.83
2019-03-06T01:47:14.876Z,1005.83
2019-03-06T01:48:09.365Z,1005.82
2019-03-06T01:48:09.921Z,1005.76
2019-03-06T01:48:10.522Z,1005.78
2019-03-06T01:48:11.121Z,1005.78
2019-03-06T01:48:11.726Z,1005.80
2019-03-06T01:48:12.320Z,1005.79
2019-03-06T01:48:12.920Z,1005.79
2019-03-06T01:48:13.522Z,1005.79
2019-03-06T01:49:06.999Z,1005.83
2019-03-06T01:49:07.574Z,1005.83
2019-03-06T01:49:08.173Z,1005.80
2019-03-06T01:49:08.777Z,1005.79
2019-03-06T01:49:09.371Z,1005.80
2019-03-06T01:49:09.972Z,1005.79
2019-03-06T01:49:10.571Z,1005.80
2019-03-06T01:49:11.171Z,1005.76
2019-03-06T01:50:04.650Z,1005.77
2019-03-06T01:50:05.225Z,1005.76
2019-03-06T01:50:05.826Z,1005.75
2019-03-06T01:50:06.426Z,1005.74
2019-03-06T01:50:07.025Z,1005.78
2019-03-06T01:50:07.624Z,1005.76
2019-03-06T01:50:08.227Z,1005.79
2019-03-06T01:50:08.827Z,1005.75
2019-03-06T01:51:02.301Z,1005.81
2019-03-06T01:51:02.876Z,1005.78
2019-03-06T01:51:03.480Z,1005.78
2019-03-06T01:51:04.081Z,1005.80
2019-03-06T01:51:04.674Z,1005.77
2019-03-06T01:51:05.273Z,1005.80
2019-03-06T01:51:05.873Z,1005.78
2019-03-06T01:51:06.473Z,1005.83
2019-03-06T01:52:00.977Z,1005.81
2019-03-06T01:52:01.552Z,1005.76
2019-03-06T01:52:02.152Z,1005.77
2019-03-06T01:52:02.752Z,1005.79
2019-03-06T01:52:03.354Z,1005.79
2019-03-06T01:52:03.949Z,1005.79
2019-03-06T01:52:04.552Z,1005.82
2019-03-06T01:52:05.150Z,1005.75
2019-03-06T01:52:58.629Z,1005.78
2019-03-06T01:52:59.205Z,1005.73
2019-03-06T01:52:59.803Z,1005.73
2019-03-06T01:53:00.403Z,1005.74
2019-03-06T01:53:01.005Z,1005.76
2019-03-06T01:53:01.608Z,1005.74
2019-03-06T01:53:02.203Z,1005.74
2019-03-06T01:53:02.802Z,1005.74
2019-03-06T01:53:57.305Z,1005.79
2019-03-06T01:53:57.880Z,1005.75
2019-03-06T01:53:58.479Z,1005.78
2019-03-06T01:53:59.079Z,1005.71
2019-03-06T01:53:59.679Z,1005.73
2019-03-06T01:54:00.279Z,1005.67
2019-03-06T01:54:00.881Z,1005.72
2019-03-06T01:54:01.480Z,1005.71
2019-03-06T01:54:55.981Z,1005.73
2019-03-06T01:54:56.555Z,1005.73
2019-03-06T01:54:57.157Z,1005.70
2019-03-06T01:54:57.755Z,1005.71
2019-03-06T01:54:58.355Z,1005.72
2019-03-06T01:54:58.954Z,1005.68
2019-03-06T01:54:59.553Z,1005.73
2019-03-06T01:55:00.340Z,1005.69
2019-03-06T01:55:53.633Z,1005.72
2019-03-06T01:55:54.206Z,1005.68
2019-03-06T01:55:54.808Z,1005.70
2019-03-06T01:55:55.406Z,1005.72
2019-03-06T01:55:56.006Z,1005.71
2019-03-06T01:55:56.607Z,1005.72
2019-03-06T01:55:57.206Z,1005.67
2019-03-06T01:55:57.806Z,1005.66
2019-03-06T01:56:51.285Z,1005.73
2019-03-06T01:56:51.861Z,1005.70
2019-03-06T01:56:52.459Z,1005.71
2019-03-06T01:56:53.057Z,1005.70
2019-03-06T01:56:53.659Z,1005.69